sensor_id;sensor_type;location;lat;lon;timestamp;pressure;altitude;pressure_sealevel;temperature;humidity
22261;BME280;11299;43.202;27.920;2023-05-12T00:01:12;76461.19;;;11.71;100.00
22261;BME280;11299;43.202;27.920;2023-05-12T00:03:41;77186.66;;;11.88;100.00
22261;BME280;11299;43.202;27.920;2023-05-12T00:06:06;77879.66;;;11.79;100.00
22261;BME280;11299;43.202;27.920;2023-05-12T00:08:32;78244.97;;;11.89;100.00
22261;BME280;11299;43.202;27.920;2023-05-12T00:10:57;77891.31;;;11.88;100.00
22261;BME280;11299;43.202;27.920;2023-05-12T00:13:23;78517.69;;;11.27;100.00
22261;BME280;11299;43.202;27.920;2023-05-12T00:15:49;79315.50;;;11.99;100.00
22261;BME280;11299;43.202;27.920;2023-05-12T00:18:16;78868.47;;;11.26;100.00
22261;BME280;11299;43.202;27.920;2023-05-12T00:20:41;80007.41;;;11.89;100.00
22261;BME280;11299;43.202;27.920;2023-05-12T00:23:07;80008.75;;;11.90;100.00
22261;BME280;11299;43.202;27.920;2023-05-12T00:25:33;80357.31;;;11.87;100.00
22261;BME280;11299;43.202;27.920;2023-05-12T00:27:58;79642.94;;;11.80;100.00
22261;BME280;11299;43.202;27.920;2023-05-12T00:30:24;79582.03;;;11.33;100.00
22261;BME280;11299;43.202;27.920;2023-05-12T00:32:50;78954.41;;;11.92;100.00
22261;BME280;11299;43.202;27.920;2023-05-12T00:35:16;78951.81;;;11.90;100.00
22261;BME280;11299;43.202;27.920;2023-05-12T00:37:42;79282.53;;;11.74;100.00
22261;BME280;11299;43.202;27.920;2023-05-12T00:40:08;78947.19;;;11.87;100.00
22261;BME280;11299;43.202;27.920;2023-05-12T00:42:34;79283.88;;;11.75;100.00
22261;BME280;11299;43.202;27.920;2023-05-12T00:45:00;79619.09;;;11.62;100.00
22261;BME280;11299;43.202;27.920;2023-05-12T00:47:26;79970.16;;;11.61;100.00
22261;BME280;11299;43.202;27.920;2023-05-12T00:49:52;79986.13;;;11.73;100.00
22261;BME280;11299;43.202;27.920;2023-05-12T00:52:18;79644.91;;;11.81;100.00
22261;BME280;11299;43.202;27.920;2023-05-12T00:54:44;78941.94;;;11.83;100.00
22261;BME280;11299;43.202;27.920;2023-05-12T00:57:11;78163.03;;;11.25;100.00
22261;BME280;11299;43.202;27.920;2023-05-12T00:59:37;77537.66;;;11.87;100.00
22261;BME280;11299;43.202;27.920;2023-05-12T01:02:02;77879.66;;;11.79;100.00
22261;BME280;11299;43.202;27.920;2023-05-12T01:04:28;77522.84;;;11.75;100.00
22261;BME280;11299;43.202;27.920;2023-05-12T01:07:10;78235.88;;;11.82;100.00
22261;BME280;11299;43.202;27.920;2023-05-12T01:09:36;77839.50;;;11.48;100.00
22261;BME280;11299;43.202;27.920;2023-05-12T01:12:02;77494.47;;;11.53;100.00
22261;BME280;11299;43.202;27.920;2023-05-12T01:14:27;77152.00;;;11.61;100.00
22261;BME280;11299;43.202;27.920;2023-05-12T01:16:58;76826.72;;;11.82;100.00
22261;BME280;11299;43.202;27.920;2023-05-12T01:21:57;76779.47;;;11.45;100.00
22261;BME280;11299;43.202;27.920;2023-05-12T01:24:26;77842.06;;;11.50;100.00
22261;BME280;11299;43.202;27.920;2023-05-12T01:26:53;78560.13;;;11.60;100.00
22261;BME280;11299;43.202;27.920;2023-05-12T01:29:20;78222.84;;;11.72;100.00
22261;BME280;11299;43.202;27.920;2023-05-12T01:31:47;77480.94;;;11.43;100.00
22261;BME280;11299;43.202;27.920;2023-05-12T01:34:16;77091.72;;;11.13;100.00
22261;BME280;11299;43.202;27.920;2023-05-12T01:36:45;76444.00;;;11.58;100.00
22261;BME280;11299;43.202;27.920;2023-05-12T01:39:10;76119.84;;;11.80;100.00
22261;BME280;11299;43.202;27.920;2023-05-12T01:41:37;76119.84;;;11.80;100.00
22261;BME280;11299;43.202;27.920;2023-05-12T01:44:02;75022.44;;;11.47;100.00
22261;BME280;11299;43.202;27.920;2023-05-12T01:46:28;74715.34;;;11.83;100.00
22261;BME280;11299;43.202;27.920;2023-05-12T01:48:53;74720.94;;;11.87;100.00
22261;BME280;11299;43.202;27.920;2023-05-12T01:51:19;74970.66;;;11.05;100.00
22261;BME280;11299;43.202;27.920;2023-05-12T01:53:44;76455.47;;;11.67;100.00
22261;BME280;11299;43.202;27.920;2023-05-12T01:56:10;78475.91;;;10.95;100.00
22261;BME280;11299;43.202;27.920;2023-05-12T01:58:35;79970.16;;;11.61;100.00
22261;BME280;11299;43.202;27.920;2023-05-12T02:01:00;80691.16;;;11.73;100.00
22261;BME280;11299;43.202;27.920;2023-05-12T02:03:26;79994.13;;;11.79;100.00
22261;BME280;11299;43.202;27.920;2023-05-12T02:05:51;77808.44;;;11.23;100.00
22261;BME280;11299;43.202;27.920;2023-05-12T02:08:17;77887.41;;;11.85;100.00
22261;BME280;11299;43.202;27.920;2023-05-12T02:10:42;77104.53;;;11.23;100.00
22261;BME280;11299;43.202;27.920;2023-05-12T02:13:07;78156.53;;;11.20;100.00
22261;BME280;11299;43.202;27.920;2023-05-12T02:15:33;79967.47;;;11.59;100.00
22261;BME280;11299;43.202;27.920;2023-05-12T02:17:58;81380.09;;;11.61;100.00
22261;BME280;11299;43.202;27.920;2023-05-12T02:20:24;82107.16;;;11.77;100.00
22261;BME280;11299;43.202;27.920;2023-05-12T02:22:49;81042.38;;;11.72;100.00
22261;BME280;11299;43.202;27.920;2023-05-12T02:25:15;81373.34;;;11.56;100.00
22261;BME280;11299;43.202;27.920;2023-05-12T02:27:40;82034.81;;;11.23;100.00
22261;BME280;11299;43.202;27.920;2023-05-12T02:30:06;82768.59;;;11.45;100.00
22261;BME280;11299;43.202;27.920;2023-05-12T02:32:32;83501.66;;;11.65;100.00
22261;BME280;11299;43.202;27.920;2023-05-12T02:34:57;83756.94;;;10.94;100.00
22261;BME280;11299;43.202;27.920;2023-05-12T02:37:23;82793.38;;;11.63;100.00
22261;BME280;11299;43.202;27.920;2023-05-12T02:39:49;81834.44;;;9.76;100.00
22261;BME280;11299;43.202;27.920;2023-05-12T02:42:14;81041.06;;;11.71;100.00
22261;BME280;11299;43.202;27.920;2023-05-12T02:44:40;80235.81;;;10.95;100.00
22261;BME280;11299;43.202;27.920;2023-05-12T02:47:05;79966.16;;;11.58;100.00
22261;BME280;11299;43.202;27.920;2023-05-12T02:49:30;79576.06;;;11.29;100.00
22261;BME280;11299;43.202;27.920;2023-05-12T02:51:56;78547.72;;;11.51;100.00
22261;BME280;11299;43.202;27.920;2023-05-12T02:54:22;79275.97;;;11.69;100.00
22261;BME280;11299;43.202;27.920;2023-05-12T02:56:47;78913.72;;;11.61;100.00
22261;BME280;11299;43.202;27.920;2023-05-12T02:59:13;76468.81;;;11.77;100.00
22261;BME280;11299;43.202;27.920;2023-05-12T03:01:38;74678.69;;;11.53;100.00
22261;BME280;11299;43.202;27.920;2023-05-12T03:04:04;74707.91;;;11.77;100.00
22261;BME280;11299;43.202;27.920;2023-05-12T03:06:29;73919.13;;;11.07;100.00
22261;BME280;11299;43.202;27.920;2023-05-12T03:08:55;73311.31;;;11.86;100.00
22261;BME280;11299;43.202;27.920;2023-05-12T03:11:21;71891.53;;;11.75;100.00
22261;BME280;11299;43.202;27.920;2023-05-12T03:13:46;71803.66;;;11.01;100.00
22261;BME280;11299;43.202;27.920;2023-05-12T03:16:13;71882.56;;;11.68;100.00
22261;BME280;11299;43.202;27.920;2023-05-12T03:18:38;70839.06;;;11.77;100.00
22261;BME280;11299;43.202;27.920;2023-05-12T03:21:04;68662.22;;;11.17;100.00
22261;BME280;11299;43.202;27.920;2023-05-12T03:23:29;68022.56;;;11.73;100.00
22261;BME280;11299;43.202;27.920;2023-05-12T03:25:55;66964.50;;;11.69;100.00
22261;BME280;11299;43.202;27.920;2023-05-12T03:28:21;65781.81;;;10.50;100.00
22261;BME280;11299;43.202;27.920;2023-05-12T03:30:48;64469.91;;;11.33;100.00
22261;BME280;11299;43.202;27.920;2023-05-12T03:33:14;62722.22;;;11.38;100.00
22261;BME280;11299;43.202;27.920;2023-05-12T03:35:39;60323.81;;;11.93;100.00
22261;BME280;11299;43.202;27.920;2023-05-12T03:38:04;58229.25;;;12.01;100.00
22261;BME280;11299;43.202;27.920;2023-05-12T03:40:30;56126.53;;;12.00;100.00
22261;BME280;11299;43.202;27.920;2023-05-12T03:42:55;55414.66;;;11.88;100.00
22261;BME280;11299;43.202;27.920;2023-05-12T03:45:21;52629.13;;;12.03;100.00
22261;BME280;11299;43.202;27.920;2023-05-12T03:47:46;50896.97;;;12.23;100.00
22261;BME280;11299;43.202;27.920;2023-05-12T03:50:12;48446.22;;;12.19;100.00
22261;BME280;11299;43.202;27.920;2023-05-12T03:52:37;43905.84;;;12.19;100.00
22261;BME280;11299;43.202;27.920;2023-05-12T03:55:05;40771.56;;;12.27;100.00
22261;BME280;11299;43.202;27.920;2023-05-12T03:57:31;37986.94;;;12.34;100.00
22261;BME280;11299;43.202;27.920;2023-05-12T03:59:57;33795.91;;;12.13;100.00
22261;BME280;11299;43.202;27.920;2023-05-12T04:02:22;30687.28;;;12.54;100.00
22261;BME280;11299;43.202;27.920;2023-05-12T04:04:47;25475.38;;;12.58;100.00
22261;BME280;11299;43.202;27.920;2023-05-12T04:07:13;20590.97;;;11.87;100.00
22261;BME280;11299;43.202;27.920;2023-05-12T04:09:38;7796.94;;;11.79;100.00
22261;BME280;11299;43.202;27.920;2023-05-12T04:12:04;-4261.31;;;12.71;100.00
22261;BME280;11299;43.202;27.920;2023-05-12T04:14:30;-13201.19;;;12.75;100.00
22261;BME280;11299;43.202;27.920;2023-05-12T04:16:55;-14230.41;;;12.72;100.00
22261;BME280;11299;43.202;27.920;2023-05-12T04:19:22;-14233.75;;;12.88;100.00
22261;BME280;11299;43.202;27.920;2023-05-12T04:21:48;-20534.31;;;12.29;100.00
22261;BME280;11299;43.202;27.920;2023-05-12T04:24:13;-21088.72;;;12.85;100.00
22261;BME280;11299;43.202;27.920;2023-05-12T04:26:39;-21091.88;;;12.95;100.00
22261;BME280;11299;43.202;27.920;2023-05-12T04:29:04;-21076.81;;;12.47;100.00
22261;BME280;11299;43.202;27.920;2023-05-12T04:31:30;-21082.78;;;12.66;100.00
22261;BME280;11299;43.202;27.920;2023-05-12T04:33:55;-21104.56;;;13.36;100.00
22261;BME280;11299;43.202;27.920;2023-05-12T04:36:21;-21081.84;;;12.63;100.00
22261;BME280;11299;43.202;27.920;2023-05-12T04:38:47;-21103.31;;;13.32;100.00
22261;BME280;11299;43.202;27.920;2023-05-12T04:41:12;-21101.59;;;13.27;100.00
22261;BME280;11299;43.202;27.920;2023-05-12T04:43:38;-21104.56;;;13.36;100.00
22261;BME280;11299;43.202;27.920;2023-05-12T04:46:03;-21088.72;;;12.85;100.00
22261;BME280;11299;43.202;27.920;2023-05-12T04:48:29;-21079.00;;;12.54;100.00
22261;BME280;11299;43.202;27.920;2023-05-12T04:50:57;-21116.50;;;13.74;100.00
22261;BME280;11299;43.202;27.920;2023-05-12T04:53:23;-21118.69;;;13.81;100.00
22261;BME280;11299;43.202;27.920;2023-05-12T04:55:48;-21123.53;;;13.97;100.00
22261;BME280;11299;43.202;27.920;2023-05-12T04:58:14;-21101.28;;;13.26;100.00
22261;BME280;11299;43.202;27.920;2023-05-12T05:00:40;-21110.38;;;13.55;100.00
22261;BME280;11299;43.202;27.920;2023-05-12T05:03:05;-21133.25;;;14.28;100.00
22261;BME280;11299;43.202;27.920;2023-05-12T05:05:31;-21136.41;;;14.38;100.00
22261;BME280;11299;43.202;27.920;2023-05-12T05:07:57;-21136.09;;;14.37;100.00
22261;BME280;11299;43.202;27.920;2023-05-12T05:10:22;-21137.50;;;14.42;100.00
22261;BME280;11299;43.202;27.920;2023-05-12T05:12:48;-21140.47;;;14.51;100.00
22261;BME280;11299;43.202;27.920;2023-05-12T05:15:13;-21142.03;;;14.56;100.00
22261;BME280;11299;43.202;27.920;2023-05-12T05:17:39;-21126.69;;;14.07;100.00
22261;BME280;11299;43.202;27.920;2023-05-12T05:20:04;-21149.88;;;14.81;100.00
22261;BME280;11299;43.202;27.920;2023-05-12T05:22:31;-21138.75;;;14.46;100.00
22261;BME280;11299;43.202;27.920;2023-05-12T05:24:57;-21135.47;;;14.35;100.00
22261;BME280;11299;43.202;27.920;2023-05-12T05:27:22;-21157.38;;;15.05;100.00
22261;BME280;11299;43.202;27.920;2023-05-12T05:29:48;-21146.13;;;14.69;100.00
22261;BME280;11299;43.202;27.920;2023-05-12T05:32:14;-21161.78;;;15.20;100.00
22261;BME280;11299;43.202;27.920;2023-05-12T05:34:39;-21146.44;;;14.70;100.00
22261;BME280;11299;43.202;27.920;2023-05-12T05:37:05;-21171.16;;;15.50;100.00
22261;BME280;11299;43.202;27.920;2023-05-12T05:39:30;-21174.31;;;15.60;100.00
22261;BME280;11299;43.202;27.920;2023-05-12T05:41:56;-21175.41;;;15.63;100.00
22261;BME280;11299;43.202;27.920;2023-05-12T05:44:23;-21181.50;;;15.83;100.00
22261;BME280;11299;43.202;27.920;2023-05-12T05:46:49;-21188.38;;;16.05;100.00
22261;BME280;11299;43.202;27.920;2023-05-12T05:49:15;-21184.63;;;15.93;100.00
22261;BME280;11299;43.202;27.920;2023-05-12T05:51:40;-21191.50;;;16.15;100.00
22261;BME280;11299;43.202;27.920;2023-05-12T05:54:06;-21197.94;;;16.36;100.00
22261;BME280;11299;43.202;27.920;2023-05-12T05:56:31;-21201.53;;;16.47;100.00
22261;BME280;11299;43.202;27.920;2023-05-12T05:58:57;-21199.03;;;16.39;100.00
22261;BME280;11299;43.202;27.920;2023-05-12T06:01:27;-21181.19;;;15.82;100.00
22261;BME280;11299;43.202;27.920;2023-05-12T06:03:53;-21205.59;;;16.60;100.00
22261;BME280;11299;43.202;27.920;2023-05-12T06:06:18;-21203.56;;;16.54;100.00
22261;BME280;11299;43.202;27.920;2023-05-12T06:08:44;-21207.78;;;16.67;100.00
22261;BME280;11299;43.202;27.920;2023-05-12T06:11:09;-21177.75;;;15.71;100.00
22261;BME280;11299;43.202;27.920;2023-05-12T06:13:36;-21195.75;;;16.29;100.00
22261;BME280;11299;43.202;27.920;2023-05-12T06:16:01;-21201.84;;;16.48;100.00
22261;BME280;11299;43.202;27.920;2023-05-12T06:18:27;-21205.28;;;16.59;100.00
22261;BME280;11299;43.202;27.920;2023-05-12T06:20:52;-21175.56;;;15.64;100.00
22261;BME280;11299;43.202;27.920;2023-05-12T06:23:18;-21202.31;;;16.50;100.00
22261;BME280;11299;43.202;27.920;2023-05-12T06:25:43;-21199.97;;;16.42;100.00
22261;BME280;11299;43.202;27.920;2023-05-12T06:28:09;-21185.88;;;15.97;100.00
22261;BME280;11299;43.202;27.920;2023-05-12T06:30:34;-21212.47;;;16.82;100.00
22261;BME280;11299;43.202;27.920;2023-05-12T06:33:00;-21215.44;;;16.92;100.00
22261;BME280;11299;43.202;27.920;2023-05-12T06:35:25;-21208.09;;;16.68;100.00
22261;BME280;11299;43.202;27.920;2023-05-12T06:37:54;-21199.66;;;16.41;100.00
22261;BME280;11299;43.202;27.920;2023-05-12T06:40:22;-21221.06;;;17.10;100.00
22261;BME280;11299;43.202;27.920;2023-05-12T06:42:48;-21227.50;;;17.31;100.00
22261;BME280;11299;43.202;27.920;2023-05-12T06:45:14;-21229.38;;;17.37;100.00
22261;BME280;11299;43.202;27.920;2023-05-12T06:47:40;-21229.22;;;17.36;100.00
22261;BME280;11299;43.202;27.920;2023-05-12T06:50:06;-21233.59;;;17.50;100.00
22261;BME280;11299;43.202;27.920;2023-05-12T06:52:34;-21228.41;;;17.34;100.00
22261;BME280;11299;43.202;27.920;2023-05-12T06:55:00;-21237.50;;;17.63;100.00
22261;BME280;11299;43.202;27.920;2023-05-12T06:57:26;-21243.75;;;17.83;100.00
22261;BME280;11299;43.202;27.920;2023-05-12T06:59:51;-21247.50;;;17.95;98.36
22261;BME280;11299;43.202;27.920;2023-05-12T07:02:17;-21249.84;;;18.03;100.00
22261;BME280;11299;43.202;27.920;2023-05-12T07:04:42;-21246.56;;;17.92;100.00
22261;BME280;11299;43.202;27.920;2023-05-12T07:07:08;-21251.88;;;18.09;99.88
22261;BME280;11299;43.202;27.920;2023-05-12T07:09:33;-21238.44;;;17.66;99.21
22261;BME280;11299;43.202;27.920;2023-05-12T07:11:59;-21200.28;;;16.43;100.00
22261;BME280;11299;43.202;27.920;2023-05-12T07:14:25;-21258.13;;;18.29;100.00
22261;BME280;11299;43.202;27.920;2023-05-12T07:16:50;-21264.38;;;18.49;100.00
22261;BME280;11299;43.202;27.920;2023-05-12T07:19:16;-21237.97;;;17.64;100.00
22261;BME280;11299;43.202;27.920;2023-05-12T07:21:42;-21217.16;;;16.98;100.00
22261;BME280;11299;43.202;27.920;2023-05-12T07:24:07;-21265.63;;;18.53;100.00
22261;BME280;11299;43.202;27.920;2023-05-12T07:26:33;-21259.06;;;18.32;100.00
22261;BME280;11299;43.202;27.920;2023-05-12T07:28:59;-21272.97;;;18.77;100.00
22261;BME280;11299;43.202;27.920;2023-05-12T07:31:25;-21258.91;;;18.32;98.68
22261;BME280;11299;43.202;27.920;2023-05-12T07:33:50;-21282.47;;;19.08;99.82
22261;BME280;11299;43.202;27.920;2023-05-12T07:36:15;-21253.28;;;18.14;93.66
22261;BME280;11299;43.202;27.920;2023-05-12T07:38:41;-21262.34;;;18.43;97.28
22261;BME280;11299;43.202;27.920;2023-05-12T07:41:06;-21278.41;;;18.95;95.85
22261;BME280;11299;43.202;27.920;2023-05-12T07:43:32;-21280.28;;;19.01;98.47
22261;BME280;11299;43.202;27.920;2023-05-12T07:45:57;-21275.59;;;18.86;98.82
22261;BME280;11299;43.202;27.920;2023-05-12T07:48:25;-21278.72;;;18.96;100.00
22261;BME280;11299;43.202;27.920;2023-05-12T07:50:51;-21282.16;;;19.07;100.00
22261;BME280;11299;43.202;27.920;2023-05-12T07:53:17;-21281.22;;;19.04;97.82
22261;BME280;11299;43.202;27.920;2023-05-12T07:55:42;-21258.91;;;18.32;99.34
22261;BME280;11299;43.202;27.920;2023-05-12T07:58:08;-21277.78;;;18.93;97.70
22261;BME280;11299;43.202;27.920;2023-05-12T08:00:33;-21283.88;;;19.12;97.71
22261;BME280;11299;43.202;27.920;2023-05-12T08:02:59;-21264.38;;;18.49;96.13
22261;BME280;11299;43.202;27.920;2023-05-12T08:05:24;-21278.72;;;18.96;94.37
22261;BME280;11299;43.202;27.920;2023-05-12T08:07:50;-21284.97;;;19.16;96.19
22261;BME280;11299;43.202;27.920;2023-05-12T08:10:16;-21287.47;;;19.24;97.66
22261;BME280;11299;43.202;27.920;2023-05-12T08:12:41;-21287.31;;;19.23;99.87
22261;BME280;11299;43.202;27.920;2023-05-12T08:15:08;-21280.91;;;19.03;98.67
22261;BME280;11299;43.202;27.920;2023-05-12T08:17:33;-21300.59;;;19.66;96.50
22261;BME280;11299;43.202;27.920;2023-05-12T08:19:59;-21265.78;;;18.54;100.00
22261;BME280;11299;43.202;27.920;2023-05-12T08:22:25;-21264.22;;;18.49;100.00
22261;BME280;11299;43.202;27.920;2023-05-12T08:24:50;-21248.75;;;17.99;100.00
22261;BME280;11299;43.202;27.920;2023-05-12T08:27:17;-21264.38;;;18.49;100.00
22261;BME280;11299;43.202;27.920;2023-05-12T08:29:42;-21268.13;;;18.61;100.00
22261;BME280;11299;43.202;27.920;2023-05-12T08:32:08;-21276.69;;;18.89;100.00
22261;BME280;11299;43.202;27.920;2023-05-12T08:34:33;-21274.22;;;18.81;100.00
22261;BME280;11299;43.202;27.920;2023-05-12T08:36:59;-21279.66;;;18.99;100.00
22261;BME280;11299;43.202;27.920;2023-05-12T08:39:25;-21274.06;;;18.81;100.00
22261;BME280;11299;43.202;27.920;2023-05-12T08:44:58;-21241.25;;;17.75;100.00
22261;BME280;11299;43.202;27.920;2023-05-12T08:47:24;-21252.81;;;18.12;100.00
22261;BME280;11299;43.202;27.920;2023-05-12T08:49:59;-21263.28;;;18.46;100.00
22261;BME280;11299;43.202;27.920;2023-05-12T08:52:26;-21258.44;;;18.30;100.00
22261;BME280;11299;43.202;27.920;2023-05-12T08:54:53;-21257.50;;;18.27;100.00
22261;BME280;11299;43.202;27.920;2023-05-12T08:57:20;-21257.34;;;18.27;100.00
22261;BME280;11299;43.202;27.920;2023-05-12T08:59:46;-21259.22;;;18.33;100.00
22261;BME280;11299;43.202;27.920;2023-05-12T09:02:12;-21243.91;;;17.83;100.00
22261;BME280;11299;43.202;27.920;2023-05-12T09:04:38;-21263.75;;;18.47;100.00
22261;BME280;11299;43.202;27.920;2023-05-12T09:07:04;-21247.34;;;17.95;100.00
22261;BME280;11299;43.202;27.920;2023-05-12T09:09:32;-21245.31;;;17.88;100.00
22261;BME280;11299;43.202;27.920;2023-05-12T09:12:00;-21270.94;;;18.70;100.00
22261;BME280;11299;43.202;27.920;2023-05-12T09:14:28;-21244.22;;;17.84;100.00
22261;BME280;11299;43.202;27.920;2023-05-12T09:17:00;-21243.28;;;17.81;100.00
22261;BME280;11299;43.202;27.920;2023-05-12T09:19:27;-21244.06;;;17.84;100.00
22261;BME280;11299;43.202;27.920;2023-05-12T09:21:52;-21245.31;;;17.88;100.00
22261;BME280;11299;43.202;27.920;2023-05-12T09:24:18;-21273.28;;;18.78;100.00
22261;BME280;11299;43.202;27.920;2023-05-12T09:26:44;-21268.59;;;18.63;100.00
22261;BME280;11299;43.202;27.920;2023-05-12T09:29:11;-21267.81;;;18.60;100.00
22261;BME280;11299;43.202;27.920;2023-05-12T09:31:36;-21253.75;;;18.15;100.00
22261;BME280;11299;43.202;27.920;2023-05-12T09:34:07;-21255.78;;;18.22;100.00
22261;BME280;11299;43.202;27.920;2023-05-12T09:36:33;-21259.06;;;18.32;100.00
22261;BME280;11299;43.202;27.920;2023-05-12T09:39:00;-21257.81;;;18.28;100.00
22261;BME280;11299;43.202;27.920;2023-05-12T09:41:39;-21252.03;;;18.10;100.00
22261;BME280;11299;43.202;27.920;2023-05-12T09:44:06;-21248.44;;;17.98;100.00
22261;BME280;11299;43.202;27.920;2023-05-12T09:46:33;-21245.63;;;17.89;100.00
22261;BME280;11299;43.202;27.920;2023-05-12T09:48:58;-21229.38;;;17.37;100.00
22261;BME280;11299;43.202;27.920;2023-05-12T09:51:27;-21224.34;;;17.21;100.00
22261;BME280;11299;43.202;27.920;2023-05-12T09:53:53;-21240.63;;;17.73;100.00
22261;BME280;11299;43.202;27.920;2023-05-12T09:56:19;-21196.84;;;16.32;100.00
22261;BME280;11299;43.202;27.920;2023-05-12T09:58:47;-21242.66;;;17.79;100.00
22261;BME280;11299;43.202;27.920;2023-05-12T10:01:18;-21239.84;;;17.70;100.00
22261;BME280;11299;43.202;27.920;2023-05-12T10:03:50;-21243.44;;;17.82;100.00
22261;BME280;11299;43.202;27.920;2023-05-12T10:06:23;-21238.13;;;17.65;100.00
22261;BME280;11299;43.202;27.920;2023-05-12T10:09:31;-21235.94;;;17.58;100.00
22261;BME280;11299;43.202;27.920;2023-05-12T10:11:39;-21216.53;;;16.96;100.00
22261;BME280;11299;43.202;27.920;2023-05-12T10:14:04;-21213.25;;;16.85;100.00
22261;BME280;11299;43.202;27.920;2023-05-12T10:16:32;-21232.81;;;17.48;100.00
22261;BME280;11299;43.202;27.920;2023-05-12T10:19:00;-21227.50;;;17.31;100.00
22261;BME280;11299;43.202;27.920;2023-05-12T10:21:27;-21175.41;;;15.63;100.00
22261;BME280;11299;43.202;27.920;2023-05-12T10:23:53;-21245.00;;;17.87;100.00
22261;BME280;11299;43.202;27.920;2023-05-12T10:26:19;-21209.97;;;16.74;100.00
22261;BME280;11299;43.202;27.920;2023-05-12T10:28:45;-21244.38;;;17.85;100.00
22261;BME280;11299;43.202;27.920;2023-05-12T10:31:12;-21243.44;;;17.82;100.00
22261;BME280;11299;43.202;27.920;2023-05-12T10:33:38;-21240.63;;;17.73;100.00
22261;BME280;11299;43.202;27.920;2023-05-12T10:36:04;-21242.19;;;17.78;100.00
22261;BME280;11299;43.202;27.920;2023-05-12T10:38:36;-21242.81;;;17.80;100.00
22261;BME280;11299;43.202;27.920;2023-05-12T10:41:04;-21237.50;;;17.63;100.00
22261;BME280;11299;43.202;27.920;2023-05-12T10:43:40;-21242.19;;;17.78;100.00
22261;BME280;11299;43.202;27.920;2023-05-12T10:48:32;-21250.00;;;18.03;100.00
22261;BME280;11299;43.202;27.920;2023-05-12T10:51:10;-21214.34;;;16.88;100.00
22261;BME280;11299;43.202;27.920;2023-05-12T10:53:39;-21241.09;;;17.74;100.00
22261;BME280;11299;43.202;27.920;2023-05-12T10:56:05;-21233.59;;;17.50;100.00
22261;BME280;11299;43.202;27.920;2023-05-12T10:58:31;-21221.22;;;17.11;100.00
22261;BME280;11299;43.202;27.920;2023-05-12T11:01:04;-21235.63;;;17.57;100.00
22261;BME280;11299;43.202;27.920;2023-05-12T11:03:31;-21236.56;;;17.60;100.00
22261;BME280;11299;43.202;27.920;2023-05-12T11:06:04;-21220.28;;;17.08;100.00
22261;BME280;11299;43.202;27.920;2023-05-12T11:08:31;-21210.91;;;16.77;100.00
22261;BME280;11299;43.202;27.920;2023-05-12T11:11:01;-21218.72;;;17.03;100.00
22261;BME280;11299;43.202;27.920;2023-05-12T11:13:27;-21212.47;;;16.82;100.00
22261;BME280;11299;43.202;27.920;2023-05-12T11:15:55;-21224.06;;;17.20;100.00
22261;BME280;11299;43.202;27.920;2023-05-12T11:18:22;-21210.91;;;16.77;100.00
22261;BME280;11299;43.202;27.920;2023-05-12T11:20:49;-21228.13;;;17.33;100.00
22261;BME280;11299;43.202;27.920;2023-05-12T11:23:27;-21239.22;;;17.68;100.00
22261;BME280;11299;43.202;27.920;2023-05-12T11:25:54;-21234.69;;;17.54;100.00
22261;BME280;11299;43.202;27.920;2023-05-12T11:28:19;-21244.38;;;17.85;100.00
22261;BME280;11299;43.202;27.920;2023-05-12T11:30:50;-21238.13;;;17.65;100.00
22261;BME280;11299;43.202;27.920;2023-05-12T11:33:19;-21239.53;;;17.69;100.00
22261;BME280;11299;43.202;27.920;2023-05-12T11:35:45;-21253.59;;;18.15;100.00
22261;BME280;11299;43.202;27.920;2023-05-12T11:38:18;-21244.69;;;17.86;100.00
22261;BME280;11299;43.202;27.920;2023-05-12T11:40:44;-21248.59;;;17.99;100.00
22261;BME280;11299;43.202;27.920;2023-05-12T11:43:10;-21218.72;;;17.03;100.00
22261;BME280;11299;43.202;27.920;2023-05-12T11:45:35;-21245.63;;;17.89;100.00
22261;BME280;11299;43.202;27.920;2023-05-12T11:48:06;-21224.06;;;17.20;100.00
22261;BME280;11299;43.202;27.920;2023-05-12T11:50:32;-21233.91;;;17.51;100.00
22261;BME280;11299;43.202;27.920;2023-05-12T11:52:58;-21232.81;;;17.48;100.00
22261;BME280;11299;43.202;27.920;2023-05-12T11:55:24;-21208.88;;;16.71;100.00
22261;BME280;11299;43.202;27.920;2023-05-12T11:57:58;-21232.03;;;17.45;100.00
22261;BME280;11299;43.202;27.920;2023-05-12T12:00:32;-21260.00;;;18.35;100.00
22261;BME280;11299;43.202;27.920;2023-05-12T12:03:05;-21266.88;;;18.57;100.00
22261;BME280;11299;43.202;27.920;2023-05-12T12:05:32;-21270.78;;;18.70;100.00
22261;BME280;11299;43.202;27.920;2023-05-12T12:08:12;-21272.47;;;18.75;100.00
22261;BME280;11299;43.202;27.920;2023-05-12T12:10:41;-21275.94;;;18.87;100.00
22261;BME280;11299;43.202;27.920;2023-05-12T12:13:07;-21259.38;;;18.33;100.00
22261;BME280;11299;43.202;27.920;2023-05-12T12:15:32;-21261.56;;;18.40;100.00
22261;BME280;11299;43.202;27.920;2023-05-12T12:17:58;-21260.31;;;18.36;100.00
22261;BME280;11299;43.202;27.920;2023-05-12T12:20:23;-21249.06;;;18.00;100.00
22261;BME280;11299;43.202;27.920;2023-05-12T12:22:50;-21266.41;;;18.56;100.00
22261;BME280;11299;43.202;27.920;2023-05-12T12:25:16;-21277.16;;;18.91;100.00
22261;BME280;11299;43.202;27.920;2023-05-12T12:27:42;-21286.38;;;19.20;100.00
22261;BME280;11299;43.202;27.920;2023-05-12T12:30:08;-21294.50;;;19.46;100.00
22261;BME280;11299;43.202;27.920;2023-05-12T12:32:33;-21295.28;;;19.49;100.00
22261;BME280;11299;43.202;27.920;2023-05-12T12:34:59;-21294.03;;;19.45;100.00
22261;BME280;11299;43.202;27.920;2023-05-12T12:37:26;-21281.84;;;19.06;100.00